CGJBF CYDF-LFVP
Flight info
| Callsign | CGJBF |
|---|---|
| Flight time | 0h 56m |
| Altitude | 29000 |
| Route | OMSUT DCT DAMOX DCT NOVIP DCT UDBIV DCT DARIM |
| Aircraft | TBM8/L-SDFGRWY/S |
Departure
| Time | 2026-05-04 20:21 |
|---|---|
| Airport | Deer Lake Airport (CYDF) |
Arrival
| Time | 2026-05-04 21:17 |
|---|---|
| Airport | Saint-Pierre Pointe-Blanche Airport (LFVP) |
| Time | Latitude | Longitude | Altitude | Speed | Heading |
|---|---|---|---|---|---|
| 2026-05-04 20:15 | 49.20999 | -57.39792 | 53 ft | 0 kts | 144° |
| 2026-05-04 20:16 | 49.20998 | -57.39790 | 53 ft | 0 kts | 143° |
| 2026-05-04 20:17 | 49.20991 | -57.39780 | 22 ft | 4 kts | 128° |
| 2026-05-04 20:18 | 49.20991 | -57.39699 | 53 ft | 12 kts | 63° |
| 2026-05-04 20:18 | 49.21063 | -57.39574 | 52 ft | 19 kts | 46° |
| 2026-05-04 20:18 | 49.21123 | -57.39471 | 53 ft | 11 kts | 65° |
| 2026-05-04 20:18 | 49.21103 | -57.39405 | 53 ft | 0 kts | 134° |
| 2026-05-04 20:19 | 49.21096 | -57.39394 | 53 ft | 7 kts | 133° |
| 2026-05-04 20:19 | 49.21013 | -57.39309 | 50 ft | 19 kts | 189° |
| 2026-05-04 20:20 | 49.20922 | -57.39434 | 50 ft | 27 kts | 225° |
| 2026-05-04 20:20 | 49.20663 | -57.39845 | 55 ft | 79 kts | 228° |
| 2026-05-04 20:20 | 49.20233 | -57.40530 | 279 ft | 100 kts | 230° |
| 2026-05-04 20:20 | 49.19727 | -57.41401 | 628 ft | 112 kts | 231° |
| 2026-05-04 20:21 | 49.19187 | -57.42204 | 1200 ft | 104 kts | 225° |
| 2026-05-04 20:21 | 49.18645 | -57.42944 | 1751 ft | 105 kts | 229° |
| 2026-05-04 20:21 | 49.17628 | -57.44536 | 2900 ft | 104 kts | 232° |
| 2026-05-04 20:22 | 49.17120 | -57.45315 | 3438 ft | 103 kts | 235° |
| 2026-05-04 20:22 | 49.16628 | -57.46126 | 4011 ft | 102 kts | 237° |
| 2026-05-04 20:22 | 49.16149 | -57.46925 | 4510 ft | 105 kts | 237° |
| 2026-05-04 20:22 | 49.15646 | -57.47751 | 5025 ft | 107 kts | 236° |
| 2026-05-04 20:23 | 49.15129 | -57.48589 | 5521 ft | 109 kts | 236° |
| 2026-05-04 20:23 | 49.14602 | -57.49439 | 5993 ft | 111 kts | 236° |
| 2026-05-04 20:23 | 49.14008 | -57.50236 | 6495 ft | 119 kts | 219° |
| 2026-05-04 20:23 | 49.13107 | -57.50338 | 6962 ft | 148 kts | 177° |
| 2026-05-04 20:24 | 49.12187 | -57.49475 | 7446 ft | 165 kts | 150° |
| 2026-05-04 20:24 | 49.11305 | -57.48298 | 7952 ft | 167 kts | 150° |
| 2026-05-04 20:24 | 49.10409 | -57.47180 | 8420 ft | 168 kts | 153° |
| 2026-05-04 20:24 | 49.09471 | -57.46088 | 8859 ft | 171 kts | 155° |
| 2026-05-04 20:25 | 49.08509 | -57.45012 | 9298 ft | 173 kts | 156° |
| 2026-05-04 20:25 | 49.07532 | -57.43938 | 9729 ft | 174 kts | 155° |
| 2026-05-04 20:25 | 49.06550 | -57.42827 | 10163 ft | 177 kts | 155° |
| 2026-05-04 20:25 | 49.05555 | -57.41700 | 10579 ft | 179 kts | 156° |
| 2026-05-04 20:26 | 49.04549 | -57.40565 | 11016 ft | 181 kts | 156° |
| 2026-05-04 20:26 | 49.03530 | -57.39424 | 11434 ft | 183 kts | 156° |
| 2026-05-04 20:26 | 49.02496 | -57.38268 | 11856 ft | 185 kts | 156° |
| 2026-05-04 20:26 | 49.01453 | -57.37103 | 12277 ft | 187 kts | 156° |
| 2026-05-04 20:27 | 49.00401 | -57.35928 | 12713 ft | 188 kts | 156° |
| 2026-05-04 20:27 | 48.99338 | -57.34744 | 13132 ft | 190 kts | 155° |
| 2026-05-04 20:27 | 48.98285 | -57.33570 | 13515 ft | 191 kts | 155° |
| 2026-05-04 20:27 | 48.97210 | -57.32391 | 13919 ft | 190 kts | 158° |
| 2026-05-04 20:28 | 48.96125 | -57.31223 | 14340 ft | 192 kts | 154° |
| 2026-05-04 20:28 | 48.95059 | -57.29986 | 14731 ft | 193 kts | 154° |
| 2026-05-04 20:28 | 48.93984 | -57.28768 | 15120 ft | 193 kts | 154° |
| 2026-05-04 20:28 | 48.92900 | -57.27562 | 15510 ft | 193 kts | 155° |
| 2026-05-04 20:29 | 48.91810 | -57.26358 | 15906 ft | 194 kts | 155° |
| 2026-05-04 20:29 | 48.90715 | -57.25148 | 16275 ft | 195 kts | 155° |
| 2026-05-04 20:29 | 48.89611 | -57.23928 | 16642 ft | 197 kts | 155° |
| 2026-05-04 20:29 | 48.88500 | -57.22700 | 17039 ft | 198 kts | 154° |
| 2026-05-04 20:30 | 48.87383 | -57.21464 | 17433 ft | 199 kts | 154° |
| 2026-05-04 20:30 | 48.86259 | -57.20220 | 17789 ft | 200 kts | 154° |
| 2026-05-04 20:30 | 48.85129 | -57.18975 | 18093 ft | 203 kts | 154° |
| 2026-05-04 20:30 | 48.83962 | -57.17697 | 18344 ft | 210 kts | 154° |
| 2026-05-04 20:31 | 48.82761 | -57.16379 | 18596 ft | 216 kts | 153° |
| 2026-05-04 20:31 | 48.81528 | -57.15023 | 18859 ft | 222 kts | 153° |
| 2026-05-04 20:31 | 48.80266 | -57.13632 | 19104 ft | 227 kts | 153° |
| 2026-05-04 20:31 | 48.78979 | -57.12210 | 19363 ft | 231 kts | 153° |
| 2026-05-04 20:32 | 48.77668 | -57.10763 | 19625 ft | 235 kts | 152° |
| 2026-05-04 20:32 | 48.76336 | -57.09293 | 19889 ft | 238 kts | 152° |
| 2026-05-04 20:32 | 48.74989 | -57.07806 | 20143 ft | 241 kts | 152° |
| 2026-05-04 20:32 | 48.73624 | -57.06306 | 20406 ft | 243 kts | 152° |
| 2026-05-04 20:33 | 48.72249 | -57.04795 | 20650 ft | 245 kts | 152° |
| 2026-05-04 20:33 | 48.70865 | -57.03265 | 20924 ft | 247 kts | 152° |
| 2026-05-04 20:33 | 48.69472 | -57.01729 | 21193 ft | 248 kts | 152° |
| 2026-05-04 20:33 | 48.68070 | -57.00188 | 21469 ft | 249 kts | 152° |
| 2026-05-04 20:34 | 48.66662 | -56.98643 | 21736 ft | 250 kts | 152° |
| 2026-05-04 20:34 | 48.65254 | -56.97098 | 22005 ft | 251 kts | 152° |
| 2026-05-04 20:34 | 48.63839 | -56.95548 | 22276 ft | 251 kts | 153° |
| 2026-05-04 20:34 | 48.62430 | -56.94005 | 22556 ft | 251 kts | 153° |
| 2026-05-04 20:35 | 48.61015 | -56.92457 | 22832 ft | 251 kts | 153° |
| 2026-05-04 20:35 | 48.59599 | -56.90909 | 23085 ft | 251 kts | 153° |
| 2026-05-04 20:35 | 48.58181 | -56.89360 | 23316 ft | 251 kts | 153° |
| 2026-05-04 20:35 | 48.56765 | -56.87814 | 23551 ft | 251 kts | 153° |
| 2026-05-04 20:36 | 48.55370 | -56.86287 | 23896 ft | 245 kts | 153° |
| 2026-05-04 20:36 | 48.54008 | -56.84788 | 24253 ft | 239 kts | 153° |
| 2026-05-04 20:36 | 48.52680 | -56.83326 | 24611 ft | 234 kts | 153° |
| 2026-05-04 20:36 | 48.51379 | -56.81898 | 24974 ft | 228 kts | 153° |
| 2026-05-04 20:37 | 48.50129 | -56.80527 | 25342 ft | 223 kts | 153° |
| 2026-05-04 20:37 | 48.48893 | -56.79175 | 25714 ft | 216 kts | 154° |
| 2026-05-04 20:37 | 48.47693 | -56.77861 | 26087 ft | 210 kts | 154° |
| 2026-05-04 20:37 | 48.46534 | -56.76591 | 26463 ft | 202 kts | 154° |
| 2026-05-04 20:38 | 48.45417 | -56.75367 | 26849 ft | 194 kts | 154° |
| 2026-05-04 20:38 | 48.44352 | -56.74207 | 27233 ft | 184 kts | 155° |
| 2026-05-04 20:38 | 48.43355 | -56.73100 | 27626 ft | 172 kts | 154° |
| 2026-05-04 20:38 | 48.42439 | -56.72060 | 27981 ft | 156 kts | 156° |
| 2026-05-04 20:39 | 48.41628 | -56.71109 | 28216 ft | 146 kts | 157° |
| 2026-05-04 20:39 | 48.40808 | -56.70205 | 28218 ft | 146 kts | 159° |
| 2026-05-04 20:39 | 48.39979 | -56.69327 | 28200 ft | 149 kts | 158° |
| 2026-05-04 20:39 | 48.39114 | -56.68317 | 28114 ft | 162 kts | 152° |
| 2026-05-04 20:40 | 48.38207 | -56.67197 | 27965 ft | 175 kts | 155° |
| 2026-05-04 20:40 | 48.37210 | -56.66067 | 27942 ft | 183 kts | 157° |
| 2026-05-04 20:40 | 48.36156 | -56.64999 | 28015 ft | 185 kts | 159° |
| 2026-05-04 20:40 | 48.35041 | -56.63944 | 28018 ft | 194 kts | 159° |
| 2026-05-04 20:41 | 48.33868 | -56.62829 | 28014 ft | 205 kts | 158° |
| 2026-05-04 20:41 | 48.32642 | -56.61624 | 28006 ft | 217 kts | 156° |
| 2026-05-04 20:41 | 48.31362 | -56.60321 | 27996 ft | 228 kts | 155° |
| 2026-05-04 20:41 | 48.30059 | -56.58946 | 28197 ft | 229 kts | 154° |
| 2026-05-04 20:42 | 48.28755 | -56.57538 | 28256 ft | 237 kts | 153° |
| 2026-05-04 20:42 | 48.27393 | -56.56075 | 28276 ft | 245 kts | 153° |
| 2026-05-04 20:42 | 48.25977 | -56.54558 | 28282 ft | 254 kts | 153° |
| 2026-05-04 20:42 | 48.24514 | -56.52989 | 28282 ft | 263 kts | 153° |
| 2026-05-04 20:43 | 48.23007 | -56.51370 | 28280 ft | 270 kts | 153° |
| 2026-05-04 20:43 | 48.21456 | -56.49705 | 28278 ft | 277 kts | 152° |
| 2026-05-04 20:43 | 48.19871 | -56.48002 | 28270 ft | 283 kts | 153° |
| 2026-05-04 20:43 | 48.18251 | -56.46264 | 28274 ft | 289 kts | 153° |
| 2026-05-04 20:44 | 48.16602 | -56.44497 | 28277 ft | 294 kts | 152° |
| 2026-05-04 20:44 | 48.14924 | -56.42702 | 28276 ft | 299 kts | 152° |
| 2026-05-04 20:44 | 48.11499 | -56.39043 | 28271 ft | 306 kts | 153° |
| 2026-05-04 20:45 | 48.08019 | -56.35331 | 28283 ft | 312 kts | 152° |
| 2026-05-04 20:45 | 48.04455 | -56.31541 | 28274 ft | 317 kts | 152° |
| 2026-05-04 20:46 | 48.00846 | -56.27707 | 28279 ft | 320 kts | 152° |
| 2026-05-04 20:46 | 47.97207 | -56.23852 | 28274 ft | 322 kts | 153° |
| 2026-05-04 20:47 | 47.93549 | -56.19976 | 28291 ft | 323 kts | 153° |
| 2026-05-04 20:47 | 47.89872 | -56.16093 | 28299 ft | 324 kts | 153° |
| 2026-05-04 20:48 | 47.86180 | -56.12201 | 28302 ft | 326 kts | 153° |
| 2026-05-04 20:48 | 47.82479 | -56.08305 | 28306 ft | 326 kts | 153° |
| 2026-05-04 20:49 | 47.80613 | -56.06349 | 27982 ft | 336 kts | 153° |
| 2026-05-04 20:49 | 47.78674 | -56.04332 | 27527 ft | 340 kts | 154° |
| 2026-05-04 20:49 | 47.76740 | -56.02322 | 27106 ft | 339 kts | 153° |
| 2026-05-04 20:49 | 47.74808 | -56.00307 | 26669 ft | 340 kts | 154° |
| 2026-05-04 20:50 | 47.72872 | -55.98281 | 26237 ft | 343 kts | 154° |
| 2026-05-04 20:50 | 47.70921 | -55.96236 | 25829 ft | 344 kts | 154° |
| 2026-05-04 20:50 | 47.68961 | -55.94184 | 25431 ft | 345 kts | 154° |
| 2026-05-04 20:50 | 47.66998 | -55.92128 | 25042 ft | 346 kts | 154° |
| 2026-05-04 20:51 | 47.65026 | -55.90063 | 24654 ft | 347 kts | 154° |
| 2026-05-04 20:51 | 47.63049 | -55.88000 | 24278 ft | 348 kts | 154° |
| 2026-05-04 20:51 | 47.61066 | -55.85935 | 23924 ft | 349 kts | 154° |
| 2026-05-04 20:51 | 47.59073 | -55.83865 | 23545 ft | 350 kts | 154° |
| 2026-05-04 20:52 | 47.57077 | -55.81791 | 23150 ft | 350 kts | 154° |
| 2026-05-04 20:52 | 47.55081 | -55.79722 | 22750 ft | 351 kts | 154° |
| 2026-05-04 20:52 | 47.53093 | -55.77662 | 22323 ft | 351 kts | 154° |
| 2026-05-04 20:52 | 47.51090 | -55.75589 | 21892 ft | 351 kts | 154° |
| 2026-05-04 20:53 | 47.49762 | -55.74233 | 21605 ft | 351 kts | 155° |
| 2026-05-04 20:53 | 47.47758 | -55.72162 | 21175 ft | 351 kts | 154° |
| 2026-05-04 20:53 | 47.45763 | -55.70088 | 20749 ft | 350 kts | 154° |
| 2026-05-04 20:53 | 47.43771 | -55.68025 | 20367 ft | 349 kts | 154° |
| 2026-05-04 20:54 | 47.41795 | -55.65972 | 19953 ft | 348 kts | 153° |
| 2026-05-04 20:54 | 47.39897 | -55.63726 | 19550 ft | 347 kts | 151° |
| 2026-05-04 20:54 | 47.37949 | -55.61675 | 19150 ft | 342 kts | 155° |
| 2026-05-04 20:54 | 47.35975 | -55.59757 | 18769 ft | 338 kts | 156° |
| 2026-05-04 20:55 | 47.34013 | -55.57855 | 18354 ft | 336 kts | 156° |
| 2026-05-04 20:55 | 47.32075 | -55.55946 | 17968 ft | 334 kts | 155° |
| 2026-05-04 20:55 | 47.30159 | -55.54025 | 17563 ft | 332 kts | 155° |
| 2026-05-04 20:55 | 47.28262 | -55.52100 | 17158 ft | 330 kts | 155° |
| 2026-05-04 20:56 | 47.26379 | -55.50180 | 16722 ft | 328 kts | 155° |
| 2026-05-04 20:56 | 47.24507 | -55.48259 | 16291 ft | 327 kts | 155° |
| 2026-05-04 20:56 | 47.22652 | -55.46352 | 15870 ft | 325 kts | 155° |
| 2026-05-04 20:56 | 47.20803 | -55.44453 | 15451 ft | 323 kts | 155° |
| 2026-05-04 20:57 | 47.18978 | -55.42579 | 15039 ft | 311 kts | 156° |
| 2026-05-04 20:57 | 47.17244 | -55.40835 | 14391 ft | 296 kts | 157° |
| 2026-05-04 20:57 | 47.15582 | -55.39138 | 13728 ft | 287 kts | 157° |
| 2026-05-04 20:57 | 47.13969 | -55.37482 | 13058 ft | 277 kts | 159° |
| 2026-05-04 20:58 | 47.12319 | -55.36502 | 12360 ft | 235 kts | 186° |
| 2026-05-04 20:58 | 47.10825 | -55.36593 | 11678 ft | 201 kts | 205° |
| 2026-05-04 20:58 | 47.09593 | -55.37260 | 11056 ft | 180 kts | 219° |
| 2026-05-04 20:58 | 47.08616 | -55.38280 | 10408 ft | 168 kts | 231° |
| 2026-05-04 20:59 | 47.07851 | -55.39604 | 9823 ft | 174 kts | 241° |
| 2026-05-04 20:59 | 47.07352 | -55.41224 | 9146 ft | 179 kts | 255° |
| 2026-05-04 20:59 | 47.06991 | -55.43016 | 8464 ft | 182 kts | 252° |
| 2026-05-04 20:59 | 47.06511 | -55.44704 | 7805 ft | 182 kts | 248° |
| 2026-05-04 21:00 | 47.05915 | -55.46344 | 7137 ft | 182 kts | 244° |
| 2026-05-04 21:00 | 47.05243 | -55.47910 | 6477 ft | 180 kts | 244° |
| 2026-05-04 21:00 | 47.04587 | -55.49456 | 5824 ft | 177 kts | 245° |
| 2026-05-04 21:00 | 47.03956 | -55.50976 | 5253 ft | 171 kts | 245° |
| 2026-05-04 21:01 | 47.03351 | -55.52432 | 4974 ft | 160 kts | 246° |
| 2026-05-04 21:01 | 47.02792 | -55.53760 | 4800 ft | 148 kts | 245° |
| 2026-05-04 21:01 | 47.02260 | -55.55005 | 4576 ft | 141 kts | 246° |
| 2026-05-04 21:01 | 47.01755 | -55.56214 | 4365 ft | 137 kts | 246° |
| 2026-05-04 21:02 | 47.01265 | -55.57410 | 4146 ft | 140 kts | 246° |
| 2026-05-04 21:02 | 47.00736 | -55.58689 | 3931 ft | 146 kts | 246° |
| 2026-05-04 21:02 | 47.00423 | -55.59468 | 3832 ft | 137 kts | 247° |
| 2026-05-04 21:02 | 46.99949 | -55.60607 | 3814 ft | 126 kts | 246° |
| 2026-05-04 21:03 | 46.99499 | -55.61681 | 3718 ft | 123 kts | 248° |
| 2026-05-04 21:03 | 46.99061 | -55.62751 | 3603 ft | 123 kts | 247° |
| 2026-05-04 21:03 | 46.98624 | -55.63826 | 3466 ft | 123 kts | 247° |
| 2026-05-04 21:03 | 46.98186 | -55.64900 | 3340 ft | 123 kts | 247° |
| 2026-05-04 21:04 | 46.97740 | -55.65988 | 3206 ft | 129 kts | 246° |
| 2026-05-04 21:04 | 46.97264 | -55.67139 | 3088 ft | 135 kts | 246° |
| 2026-05-04 21:04 | 46.96778 | -55.68326 | 2948 ft | 137 kts | 246° |
| 2026-05-04 21:04 | 46.96290 | -55.69522 | 2822 ft | 137 kts | 245° |
| 2026-05-04 21:05 | 46.95797 | -55.70724 | 2669 ft | 138 kts | 245° |
| 2026-05-04 21:05 | 46.95300 | -55.71924 | 2521 ft | 138 kts | 245° |
| 2026-05-04 21:05 | 46.94801 | -55.73126 | 2381 ft | 138 kts | 244° |
| 2026-05-04 21:05 | 46.94302 | -55.74333 | 2283 ft | 138 kts | 244° |
| 2026-05-04 21:06 | 46.93806 | -55.75535 | 2187 ft | 138 kts | 244° |
| 2026-05-04 21:06 | 46.93308 | -55.76738 | 2075 ft | 138 kts | 244° |
| 2026-05-04 21:06 | 46.92816 | -55.77921 | 1997 ft | 133 kts | 244° |
| 2026-05-04 21:06 | 46.92337 | -55.79064 | 2006 ft | 131 kts | 244° |
| 2026-05-04 21:07 | 46.91866 | -55.80186 | 1987 ft | 129 kts | 245° |
| 2026-05-04 21:07 | 46.91402 | -55.81300 | 2018 ft | 128 kts | 246° |
| 2026-05-04 21:07 | 46.90941 | -55.82415 | 2023 ft | 128 kts | 245° |
| 2026-05-04 21:07 | 46.90481 | -55.83525 | 2032 ft | 128 kts | 245° |
| 2026-05-04 21:08 | 46.90016 | -55.84646 | 2021 ft | 129 kts | 245° |
| 2026-05-04 21:08 | 46.89552 | -55.85766 | 2019 ft | 129 kts | 245° |
| 2026-05-04 21:08 | 46.89086 | -55.86882 | 2016 ft | 128 kts | 245° |
| 2026-05-04 21:08 | 46.88625 | -55.87984 | 2013 ft | 127 kts | 245° |
| 2026-05-04 21:09 | 46.88168 | -55.89089 | 2007 ft | 126 kts | 246° |
| 2026-05-04 21:09 | 46.87716 | -55.90184 | 1998 ft | 125 kts | 246° |
| 2026-05-04 21:09 | 46.87267 | -55.91262 | 1992 ft | 123 kts | 246° |
| 2026-05-04 21:09 | 46.86822 | -55.92328 | 1987 ft | 122 kts | 246° |
| 2026-05-04 21:10 | 46.86381 | -55.93385 | 1990 ft | 122 kts | 245° |
| 2026-05-04 21:10 | 46.85939 | -55.94446 | 1994 ft | 122 kts | 245° |
| 2026-05-04 21:10 | 46.85496 | -55.95507 | 1995 ft | 122 kts | 245° |
| 2026-05-04 21:10 | 46.85054 | -55.96569 | 1927 ft | 121 kts | 245° |
| 2026-05-04 21:11 | 46.84644 | -55.97603 | 1728 ft | 114 kts | 244° |
| 2026-05-04 21:11 | 46.84210 | -55.98527 | 1637 ft | 106 kts | 242° |
| 2026-05-04 21:11 | 46.83801 | -55.99377 | 1601 ft | 99 kts | 244° |
| 2026-05-04 21:11 | 46.83430 | -56.00194 | 1586 ft | 95 kts | 244° |
| 2026-05-04 21:12 | 46.83068 | -56.00988 | 1581 ft | 94 kts | 245° |
| 2026-05-04 21:12 | 46.82764 | -56.01828 | 1600 ft | 95 kts | 246° |
| 2026-05-04 21:12 | 46.82416 | -56.02626 | 1687 ft | 92 kts | 244° |
| 2026-05-04 21:12 | 46.82062 | -56.03411 | 1690 ft | 95 kts | 246° |
| 2026-05-04 21:13 | 46.81720 | -56.04242 | 1731 ft | 97 kts | 247° |
| 2026-05-04 21:13 | 46.81390 | -56.05123 | 1699 ft | 101 kts | 249° |
| 2026-05-04 21:13 | 46.81077 | -56.06049 | 1652 ft | 102 kts | 248° |
| 2026-05-04 21:13 | 46.80722 | -56.06950 | 1618 ft | 102 kts | 246° |
| 2026-05-04 21:14 | 46.80293 | -56.07841 | 1486 ft | 112 kts | 240° |
| 2026-05-04 21:14 | 46.79799 | -56.08693 | 1284 ft | 103 kts | 239° |
| 2026-05-04 21:14 | 46.79433 | -56.09554 | 994 ft | 96 kts | 248° |
| 2026-05-04 21:14 | 46.79168 | -56.10398 | 922 ft | 91 kts | 243° |
| 2026-05-04 21:15 | 46.78869 | -56.11206 | 888 ft | 88 kts | 242° |
| 2026-05-04 21:15 | 46.78588 | -56.12035 | 718 ft | 97 kts | 244° |
| 2026-05-04 21:15 | 46.78225 | -56.12905 | 643 ft | 99 kts | 235° |
| 2026-05-04 21:15 | 46.77852 | -56.13787 | 524 ft | 105 kts | 239° |
| 2026-05-04 21:16 | 46.77475 | -56.14678 | 353 ft | 102 kts | 235° |
| 2026-05-04 21:16 | 46.77106 | -56.15561 | 266 ft | 99 kts | 238° |
| 2026-05-04 21:16 | 46.76758 | -56.16406 | 64 ft | 93 kts | 235° |
| 2026-05-04 21:16 | 46.76458 | -56.17094 | 8 ft | 67 kts | 234° |
| 2026-05-04 21:17 | 46.76322 | -56.17424 | 8 ft | 5 kts | 288° |
| 2026-05-04 21:17 | 46.76381 | -56.17545 | 11 ft | 14 kts | 312° |
| 2026-05-04 21:17 | 46.76413 | -56.17704 | 12 ft | 19 kts | 265° |
| 2026-05-04 21:17 | 46.76419 | -56.17829 | 12 ft | 10 kts | 308° |
| 2026-05-04 21:18 | 46.76461 | -56.17876 | 12 ft | 0 kts | 351° |
| 2026-05-04 21:33 | 46.76466 | -56.17890 | 12 ft | 0 kts | 240° |
| 2026-05-04 21:33 | 46.76456 | -56.17892 | 12 ft | 3 kts | 179° |
| 2026-05-04 21:33 | 46.76422 | -56.17931 | 13 ft | 9 kts | 225° |
| 2026-05-04 21:34 | 46.76404 | -56.18031 | 13 ft | 12 kts | 293° |
| 2026-05-04 21:34 | 46.76410 | -56.18063 | 13 ft | 0 kts | 164° |